Time;durP1;ratioP1;P1;durP2;ratioP2;P2;SDS_P1;SDS_P2;PMS_P1;PMS_P2;Temp;Humidity;BMP_temperature;BMP_pressure;BME280_temperature;BME280_humidity;BME280_pressure;Samples;Min_cycle;Max_cycle;Signal;HPM_P1;HPM_P2
2021/03/19 00:01:59;;;;;;;12.60;6.38;;;0.90;99.90;;;;;;5027174;28;20093;-78
2021/03/19 00:04:25;;;;;;;13.15;6.85;;;0.80;99.90;;;;;;5044149;28;20201;-78
2021/03/19 00:06:51;;;;;;;13.30;6.30;;;1.00;99.90;;;;;;5025062;28;20427;-80
2021/03/19 00:09:17;;;;;;;10.25;5.97;;;1.00;99.90;;;;;;5011607;28;20175;-81
2021/03/19 00:11:42;;;;;;;11.05;6.72;;;0.90;99.90;;;;;;5020692;28;20577;-79
2021/03/19 00:14:09;;;;;;;11.88;6.40;;;0.90;99.90;;;;;;5009439;28;20147;-78
2021/03/19 00:16:36;;;;;;;12.05;6.93;;;0.80;99.90;;;;;;5016126;28;20160;-77
2021/03/19 00:19:03;;;;;;;9.30;5.75;;;0.70;99.90;;;;;;5019023;28;20113;-79
2021/03/19 00:21:28;;;;;;;11.05;6.45;;;0.80;99.90;;;;;;5022668;28;20085;-81
2021/03/19 00:23:54;;;;;;;9.93;6.28;;;0.70;99.90;;;;;;5020104;28;20601;-82
2021/03/19 00:26:21;;;;;;;13.00;6.43;;;0.70;99.90;;;;;;5019654;28;20618;-76
2021/03/19 00:28:47;;;;;;;10.95;6.97;;;0.60;99.90;;;;;;5017170;28;20089;-76
2021/03/19 00:31:12;;;;;;;10.40;5.75;;;0.60;99.90;;;;;;5012551;28;20091;-76
2021/03/19 00:33:38;;;;;;;10.77;7.28;;;0.60;99.90;;;;;;5025005;28;20449;-76
2021/03/19 00:36:03;;;;;;;12.57;6.47;;;0.60;99.90;;;;;;5024611;28;20143;-76
2021/03/19 00:38:29;;;;;;;10.68;6.22;;;0.60;99.90;;;;;;5026050;28;20094;-77
2021/03/19 00:40:55;;;;;;;10.30;6.25;;;0.60;99.90;;;;;;5020515;28;20228;-78
2021/03/19 00:43:21;;;;;;;10.80;7.00;;;0.60;99.90;;;;;;5063020;22;20191;-73
2021/03/19 00:45:47;;;;;;;11.90;6.43;;;0.70;99.90;;;;;;5061492;28;20093;-74
2021/03/19 00:48:13;;;;;;;13.35;7.05;;;0.70;99.90;;;;;;5060764;28;20138;-73
2021/03/19 00:50:41;;;;;;;12.93;6.70;;;0.60;99.90;;;;;;5064976;28;20073;-73
2021/03/19 00:53:07;;;;;;;9.48;6.25;;;0.70;99.90;;;;;;5064503;28;20234;-73
2021/03/19 00:55:34;;;;;;;12.18;6.90;;;0.90;99.90;;;;;;5062426;28;20167;-73
2021/03/19 00:58:00;;;;;;;11.90;6.55;;;0.90;99.90;;;;;;5056237;28;20654;-74
2021/03/19 01:00:29;;;;;;;9.73;6.13;;;0.90;99.90;;;;;;5066995;28;20073;-73
2021/03/19 01:02:54;;;;;;;10.57;6.00;;;0.90;99.90;;;;;;5049408;28;20393;-73
2021/03/19 01:05:24;;;;;;;11.85;7.05;;;1.00;99.90;;;;;;5058458;28;20111;-73
2021/03/19 01:07:50;;;;;;;10.57;6.05;;;0.90;99.90;;;;;;5048405;28;20100;-73
2021/03/19 01:10:22;;;;;;;12.10;6.97;;;0.90;99.90;;;;;;5047449;28;20073;-74
2021/03/19 01:12:48;;;;;;;12.55;6.97;;;0.80;99.90;;;;;;5052085;28;20359;-74
2021/03/19 01:15:14;;;;;;;10.60;7.25;;;0.90;99.90;;;;;;5054485;28;20084;-74
2021/03/19 01:17:40;;;;;;;12.30;6.80;;;0.90;99.90;;;;;;5031686;28;20215;-74
2021/03/19 01:20:11;;;;;;;10.23;6.88;;;0.90;99.90;;;;;;5043468;28;20089;-73
2021/03/19 01:22:37;;;;;;;11.45;6.65;;;0.80;99.90;;;;;;5061807;28;20085;-73
2021/03/19 01:25:09;;;;;;;12.23;6.72;;;0.80;99.90;;;;;;5058504;28;20507;-73
2021/03/19 01:27:34;;;;;;;11.05;6.30;;;0.90;99.90;;;;;;5055453;28;20606;-73
2021/03/19 01:30:00;;;;;;;15.48;8.05;;;0.80;99.90;;;;;;5065193;28;20119;-73
2021/03/19 01:32:26;;;;;;;11.60;7.25;;;0.90;99.90;;;;;;5045958;28;20101;-74
2021/03/19 01:34:52;;;;;;;12.90;6.63;;;0.90;99.90;;;;;;5062091;28;20105;-73
2021/03/19 01:37:17;;;;;;;12.30;7.25;;;1.00;99.90;;;;;;5049036;28;20089;-73
2021/03/19 01:39:43;;;;;;;11.25;6.65;;;1.00;99.90;;;;;;5062739;28;20104;-73
2021/03/19 01:42:10;;;;;;;12.07;7.30;;;0.90;99.90;;;;;;5064982;28;20091;-74
2021/03/19 01:44:59;;;;;;;14.68;7.40;;;0.70;99.90;;;;;;5048578;28;20101;-73
2021/03/19 01:48:02;;;;;;;12.65;7.55;;;0.80;99.90;;;;;;5019806;28;20082;-73
2021/03/19 01:51:06;;;;;;;12.40;7.60;;;0.70;99.90;;;;;;5027013;28;20164;-73
2021/03/19 01:54:09;;;;;;;11.43;7.22;;;0.70;99.90;;;;;;5036601;28;20658;-73
2021/03/19 01:57:12;;;;;;;12.35;7.18;;;0.90;99.90;;;;;;5061286;28;20226;-75
2021/03/19 02:00:15;;;;;;;12.23;7.03;;;0.70;99.90;;;;;;5052900;28;20500;-73
2021/03/19 02:03:18;;;;;;;10.55;6.40;;;0.80;99.90;;;;;;5062371;28;20073;-73
2021/03/19 02:06:21;;;;;;;11.85;6.57;;;0.90;99.90;;;;;;5061686;28;20084;-74
2021/03/19 02:09:24;;;;;;;9.65;6.15;;;0.70;99.90;;;;;;5051139;28;20085;-73
2021/03/19 02:12:27;;;;;;;12.30;7.63;;;0.90;99.90;;;;;;5054852;28;20081;-73
2021/03/19 02:15:30;;;;;;;11.38;6.93;;;1.00;99.90;;;;;;5061235;28;20176;-74
2021/03/19 02:18:33;;;;;;;9.68;6.30;;;0.90;99.90;;;;;;5056285;28;20069;-73
2021/03/19 02:21:36;;;;;;;10.68;6.47;;;0.80;99.90;;;;;;5062154;28;20106;-73
2021/03/19 02:24:39;;;;;;;11.48;6.18;;;0.90;99.90;;;;;;5041714;28;20105;-72
2021/03/19 02:27:43;;;;;;;10.65;7.15;;;1.20;99.90;;;;;;5038961;28;20099;-73
2021/03/19 02:30:45;;;;;;;12.57;7.53;;;1.20;99.90;;;;;;5050388;28;20073;-73
2021/03/19 02:33:11;;;;;;;9.45;5.95;;;1.10;99.90;;;;;;5033408;28;20092;-74
2021/03/19 02:35:56;;;;;;;11.27;6.65;;;1.00;99.90;;;;;;5050744;28;20617;-73
2021/03/19 02:38:23;;;;;;;11.15;7.15;;;1.00;99.90;;;;;;5061026;28;20111;-73
2021/03/19 02:40:49;;;;;;;11.57;7.03;;;1.10;99.90;;;;;;5058861;28;20153;-75
2021/03/19 02:43:16;;;;;;;10.35;6.55;;;1.30;99.90;;;;;;5047124;28;20567;-74
2021/03/19 02:45:42;;;;;;;10.30;6.38;;;1.40;99.90;;;;;;5040288;28;20560;-73
2021/03/19 02:48:09;;;;;;;11.45;6.43;;;1.20;99.90;;;;;;5032923;28;20108;-73
2021/03/19 02:50:34;;;;;;;12.80;7.53;;;1.00;99.90;;;;;;5063982;28;20069;-74
2021/03/19 02:53:00;;;;;;;10.93;7.20;;;0.90;99.90;;;;;;5060510;28;20803;-73
2021/03/19 02:55:26;;;;;;;10.65;6.72;;;1.00;99.90;;;;;;5065621;28;20092;-73
2021/03/19 02:57:51;;;;;;;10.98;7.10;;;1.00;99.90;;;;;;5062594;28;20448;-74
2021/03/19 03:00:22;;;;;;;12.25;7.30;;;1.20;99.90;;;;;;5030084;28;20089;-73
2021/03/19 03:02:49;;;;;;;11.95;7.57;;;1.30;99.90;;;;;;5062501;28;20099;-74
2021/03/19 03:05:15;;;;;;;12.20;6.95;;;1.20;99.90;;;;;;5060670;28;20139;-73
2021/03/19 03:07:40;;;;;;;12.15;7.65;;;1.30;99.90;;;;;;5034914;28;20128;-73
2021/03/19 03:10:10;;;;;;;12.93;7.40;;;1.30;99.90;;;;;;5048180;28;20081;-75
2021/03/19 03:12:35;;;;;;;11.52;6.85;;;1.10;99.90;;;;;;5062118;28;20127;-73
2021/03/19 03:15:01;;;;;;;12.10;6.70;;;1.10;99.90;;;;;;5067639;28;20404;-73
2021/03/19 03:17:27;;;;;;;12.52;7.28;;;1.20;99.90;;;;;;5070111;28;20077;-74
2021/03/19 03:19:52;;;;;;;12.65;6.93;;;1.30;99.90;;;;;;5045972;28;20081;-73
2021/03/19 03:22:18;;;;;;;12.35;7.95;;;1.20;99.90;;;;;;5063741;28;20548;-73
2021/03/19 03:24:44;;;;;;;9.35;6.28;;;1.20;99.90;;;;;;5046477;28;20097;-73
2021/03/19 03:27:09;;;;;;;13.43;7.32;;;1.20;99.90;;;;;;5068188;28;20081;-73
2021/03/19 03:29:36;;;;;;;10.35;6.53;;;1.20;99.90;;;;;;5067800;28;20065;-73
2021/03/19 03:32:03;;;;;;;13.30;7.18;;;1.30;99.90;;;;;;5069370;28;20465;-73
2021/03/19 03:34:30;;;;;;;12.98;7.82;;;1.40;99.90;;;;;;5058069;28;20101;-73
2021/03/19 03:36:56;;;;;;;12.00;6.50;;;1.30;99.90;;;;;;5069830;28;20526;-73
2021/03/19 03:39:26;;;;;;;11.52;6.88;;;1.20;99.90;;;;;;5064874;28;20367;-73
2021/03/19 03:41:53;;;;;;;11.30;8.05;;;1.20;99.90;;;;;;5049864;28;20115;-73
2021/03/19 03:44:19;;;;;;;10.02;6.13;;;1.40;99.90;;;;;;5050854;28;20674;-73
2021/03/19 03:46:45;;;;;;;11.70;7.13;;;1.40;99.90;;;;;;5062246;28;20529;-72
2021/03/19 03:49:15;;;;;;;12.45;7.70;;;1.40;99.90;;;;;;5049264;28;20098;-73
2021/03/19 03:51:41;;;;;;;12.25;7.82;;;1.40;99.90;;;;;;5062893;28;20073;-73
2021/03/19 03:54:07;;;;;;;12.98;7.55;;;1.50;99.90;;;;;;5058057;28;20128;-73
2021/03/19 03:56:33;;;;;;;13.52;8.02;;;1.60;99.90;;;;;;5057694;28;20108;-73
2021/03/19 03:58:59;;;;;;;11.20;7.63;;;1.30;99.90;;;;;;5067609;28;20203;-73
2021/03/19 04:01:25;;;;;;;12.50;7.40;;;1.40;99.90;;;;;;5063859;28;20136;-73
2021/03/19 04:03:51;;;;;;;11.10;7.13;;;1.40;99.90;;;;;;5062583;28;20101;-73
2021/03/19 04:06:17;;;;;;;12.25;7.00;;;1.60;99.90;;;;;;5053804;28;20097;-73
2021/03/19 04:08:42;;;;;;;13.15;7.57;;;1.30;99.90;;;;;;5048762;28;20073;-73
2021/03/19 04:11:12;;;;;;;13.63;8.38;;;1.40;99.90;;;;;;5056207;28;20124;-73
2021/03/19 04:13:37;;;;;;;12.77;7.35;;;1.20;99.90;;;;;;5054098;28;20108;-73
2021/03/19 04:16:04;;;;;;;12.85;8.13;;;1.30;99.90;;;;;;5055919;28;20089;-73
2021/03/19 04:18:30;;;;;;;13.05;7.43;;;1.20;99.90;;;;;;5046393;28;20526;-73
2021/03/19 04:20:59;;;;;;;12.88;8.45;;;1.10;99.90;;;;;;5057948;28;20131;-72
2021/03/19 04:23:27;;;;;;;15.25;8.48;;;1.20;99.90;;;;;;5061559;28;20170;-73
2021/03/19 04:25:53;;;;;;;12.85;8.02;;;1.20;99.90;;;;;;5061005;28;20139;-73
2021/03/19 04:28:22;;;;;;;12.60;7.70;;;1.30;99.90;;;;;;5063846;28;20081;-73
2021/03/19 04:30:48;;;;;;;15.38;7.35;;;1.30;99.90;;;;;;5063847;28;20080;-72
2021/03/19 04:33:17;;;;;;;14.50;7.95;;;1.30;99.90;;;;;;5060401;28;20135;-73
2021/03/19 04:35:43;;;;;;;14.75;8.60;;;1.40;99.90;;;;;;5043862;28;20081;-73
2021/03/19 04:38:15;;;;;;;14.70;8.57;;;1.30;99.90;;;;;;5034065;28;20077;-73
2021/03/19 04:40:43;;;;;;;12.63;7.55;;;1.40;99.90;;;;;;5068547;28;20081;-73
2021/03/19 04:43:09;;;;;;;13.73;7.63;;;1.40;99.90;;;;;;5074850;28;20200;-72
2021/03/19 04:45:39;;;;;;;13.70;9.00;;;1.30;99.90;;;;;;5042948;28;20074;-73
2021/03/19 04:48:06;;;;;;;14.55;8.30;;;1.40;99.90;;;;;;5048585;28;20077;-74
2021/03/19 04:50:32;;;;;;;15.68;9.85;;;1.50;99.90;;;;;;5046870;28;20080;-73
2021/03/19 04:52:57;;;;;;;14.05;7.90;;;1.60;99.90;;;;;;5063816;28;20097;-74
2021/03/19 04:55:23;;;;;;;14.68;8.52;;;1.50;99.90;;;;;;5060936;28;20566;-73
2021/03/19 04:57:48;;;;;;;14.70;8.13;;;1.40;99.90;;;;;;5062940;28;20085;-73
2021/03/19 05:00:15;;;;;;;12.85;8.27;;;1.00;99.90;;;;;;5058668;28;20484;-73
2021/03/19 05:02:45;;;;;;;12.80;8.32;;;1.00;99.90;;;;;;5058630;28;20580;-73
2021/03/19 05:05:22;;;;;;;13.73;7.95;;;1.20;99.90;;;;;;5046977;28;20626;-74
2021/03/19 05:07:48;;;;;;;14.85;7.72;;;1.10;99.90;;;;;;5061580;28;20089;-73
2021/03/19 05:10:15;;;;;;;15.07;8.52;;;1.10;99.90;;;;;;5055557;28;20080;-73
2021/03/19 05:12:41;;;;;;;14.38;8.05;;;1.30;99.90;;;;;;5053265;28;20065;-73
2021/03/19 05:15:08;;;;;;;10.77;7.88;;;1.30;99.90;;;;;;5063060;28;20069;-74
2021/03/19 05:17:34;;;;;;;14.75;8.18;;;1.30;99.90;;;;;;5059238;28;20123;-73
2021/03/19 05:20:01;;;;;;;13.60;7.88;;;1.20;99.90;;;;;;5058147;28;20084;-74
2021/03/19 05:22:27;;;;;;;14.68;8.40;;;1.20;99.90;;;;;;5057517;28;20077;-73
2021/03/19 05:24:52;;;;;;;17.88;8.52;;;1.20;99.90;;;;;;5051919;28;20188;-73
2021/03/19 05:27:18;;;;;;;12.15;7.72;;;1.20;99.90;;;;;;5051703;28;20185;-74
2021/03/19 05:29:44;;;;;;;13.60;8.63;;;1.20;99.90;;;;;;5059305;28;20073;-73
2021/03/19 05:32:10;;;;;;;11.27;7.22;;;1.20;99.90;;;;;;5054859;28;20081;-74
2021/03/19 05:34:35;;;;;;;14.15;8.25;;;1.20;99.90;;;;;;5062291;28;20102;-73
2021/03/19 05:37:01;;;;;;;13.63;8.88;;;1.20;99.90;;;;;;5038630;28;20488;-73
2021/03/19 05:39:27;;;;;;;14.43;8.77;;;1.40;99.90;;;;;;5047590;28;20164;-73
2021/03/19 05:41:52;;;;;;;14.20;7.82;;;1.40;99.90;;;;;;5052389;28;20081;-72
2021/03/19 05:44:21;;;;;;;16.00;9.70;;;1.40;99.90;;;;;;5040528;28;20093;-73
2021/03/19 05:47:00;;;;;;;16.08;9.68;;;1.50;99.90;;;;;;5050408;28;20087;-72
2021/03/19 05:49:28;;;;;;;15.48;8.05;;;1.40;99.90;;;;;;5062692;28;20119;-73
2021/03/19 05:51:59;;;;;;;16.80;10.30;;;1.50;99.90;;;;;;5056979;28;20490;-73
2021/03/19 05:54:29;;;;;;;14.90;9.48;;;1.50;99.90;;;;;;5056469;28;20561;-73
2021/03/19 05:57:03;;;;;;;13.55;9.18;;;1.40;99.90;;;;;;5057385;28;20100;-73
2021/03/19 05:59:33;;;;;;;16.75;9.55;;;1.50;99.90;;;;;;5055386;28;20449;-73
2021/03/19 06:01:59;;;;;;;13.80;8.80;;;1.50;99.90;;;;;;5046302;28;20127;-72
2021/03/19 06:04:27;;;;;;;14.30;8.98;;;1.40;99.90;;;;;;5046601;28;20116;-73
2021/03/19 06:07:02;;;;;;;11.52;7.78;;;1.20;99.90;;;;;;5041958;28;20078;-72
2021/03/19 06:09:34;;;;;;;14.63;8.35;;;1.30;99.90;;;;;;5041457;28;20073;-73
2021/03/19 06:12:09;;;;;;;16.27;10.57;;;1.30;99.90;;;;;;5041433;28;20096;-73
2021/03/19 06:14:53;;;;;;;15.60;9.93;;;1.50;99.90;;;;;;5044967;28;20104;-72
2021/03/19 06:17:44;;;;;;;14.05;8.45;;;1.30;99.90;;;;;;5048272;28;20175;-72
2021/03/19 06:20:13;;;;;;;19.38;9.50;;;1.50;99.90;;;;;;5041658;28;20307;-72
2021/03/19 06:22:57;;;;;;;15.05;9.93;;;1.40;99.90;;;;;;5040737;28;20135;-73
2021/03/19 06:25:27;;;;;;;13.52;7.90;;;1.30;99.90;;;;;;5046543;28;20103;-72
2021/03/19 06:27:57;;;;;;;17.95;9.20;;;1.30;99.90;;;;;;5047706;28;20081;-73
2021/03/19 06:30:30;;;;;;;17.08;9.73;;;1.40;99.90;;;;;;5045701;28;20080;-73
2021/03/19 06:33:05;;;;;;;14.40;7.95;;;1.40;99.90;;;;;;5056848;28;20089;-73
2021/03/19 06:35:33;;;;;;;11.30;7.65;;;1.20;99.90;;;;;;5030552;28;20591;-73
2021/03/19 06:38:30;;;;;;;14.52;7.72;;;1.20;99.90;;;;;;5045400;28;20471;-72
2021/03/19 06:41:12;;;;;;;14.13;7.65;;;1.30;99.90;;;;;;5044275;28;20104;-74
2021/03/19 06:43:37;;;;;;;12.38;8.25;;;1.40;99.90;;;;;;5049903;28;20105;-72
2021/03/19 06:46:30;;;;;;;12.82;7.15;;;1.50;99.90;;;;;;5051671;28;20084;-72
2021/03/19 06:48:56;;;;;;;17.15;6.68;;;1.10;99.90;;;;;;5036882;28;20101;-74
2021/03/19 06:51:25;;;;;;;11.98;7.93;;;0.90;99.90;;;;;;5055269;28;20073;-72
2021/03/19 06:54:03;;;;;;;14.63;8.10;;;1.00;99.90;;;;;;5049020;28;20128;-73
2021/03/19 06:56:29;;;;;;;14.32;7.50;;;0.80;99.90;;;;;;5041049;28;20082;-72
2021/03/19 06:58:55;;;;;;;13.27;8.10;;;0.80;99.90;;;;;;5042211;28;20085;-72
2021/03/19 07:01:23;;;;;;;10.90;7.40;;;0.70;99.90;;;;;;5046978;28;20109;-73
2021/03/19 07:04:08;;;;;;;14.02;7.60;;;0.70;99.90;;;;;;5046764;28;20101;-74
2021/03/19 07:06:59;;;;;;;12.27;7.88;;;0.70;99.90;;;;;;5048123;28;20081;-72
2021/03/19 07:09:40;;;;;;;13.63;8.10;;;0.90;99.90;;;;;;5047483;28;20112;-72
2021/03/19 07:12:24;;;;;;;16.60;9.05;;;1.20;99.90;;;;;;5051237;28;20485;-73
2021/03/19 07:14:55;;;;;;;16.20;9.32;;;1.20;99.90;;;;;;5050194;28;20341;-72
2021/03/19 07:17:30;;;;;;;14.32;9.45;;;1.10;99.90;;;;;;5031599;28;20751;-73
2021/03/19 07:20:32;;;;;;;15.60;9.63;;;1.30;99.90;;;;;;5053595;28;20077;-71
2021/03/19 07:23:18;;;;;;;12.10;7.88;;;1.30;99.90;;;;;;5039550;28;20568;-71
2021/03/19 07:26:08;;;;;;;12.90;7.97;;;1.40;99.90;;;;;;5054675;28;20441;-73
2021/03/19 07:28:48;;;;;;;12.40;8.15;;;1.50;99.90;;;;;;5048001;28;20077;-73
2021/03/19 07:31:45;;;;;;;12.68;7.57;;;1.20;99.90;;;;;;5044088;28;20084;-73
2021/03/19 07:34:44;;;;;;;18.25;7.72;;;1.20;99.90;;;;;;5032103;28;20251;-74
2021/03/19 07:37:47;;;;;;;12.75;8.07;;;1.20;99.90;;;;;;5043891;28;20081;-72
2021/03/19 07:40:34;;;;;;;14.40;8.60;;;1.10;99.90;;;;;;5045555;28;20174;-74
2021/03/19 07:43:26;;;;;;;14.32;8.43;;;1.10;99.90;;;;;;5044792;28;20104;-73
2021/03/19 07:46:21;;;;;;;17.70;9.00;;;1.10;99.90;;;;;;5050127;28;20073;-73
2021/03/19 07:48:55;;;;;;;13.82;8.45;;;1.20;99.90;;;;;;5045874;28;20089;-73
2021/03/19 07:51:24;;;;;;;13.38;8.43;;;0.90;99.90;;;;;;5042531;28;20073;-73
2021/03/19 07:53:57;;;;;;;13.90;8.27;;;0.90;99.90;;;;;;5047613;28;20093;-74
2021/03/19 07:56:39;;;;;;;14.35;9.05;;;1.00;99.90;;;;;;5044782;28;20093;-74
2021/03/19 07:59:25;;;;;;;13.23;8.00;;;1.10;99.90;;;;;;5060320;28;20658;-74
2021/03/19 08:01:52;;;;;;;14.80;8.52;;;1.00;99.90;;;;;;5055233;28;20081;-74
2021/03/19 08:04:34;;;;;;;17.58;8.80;;;1.00;99.90;;;;;;5064456;28;20909;-74
2021/03/19 08:07:22;;;;;;;16.00;8.55;;;0.90;99.90;;;;;;5040576;28;20073;-75
2021/03/19 08:10:21;;;;;;;16.58;9.57;;;0.90;99.90;;;;;;5047298;28;20571;-74
2021/03/19 08:12:58;;;;;;;15.48;8.75;;;1.10;99.90;;;;;;5047699;28;20084;-73
2021/03/19 08:15:33;;;;;;;17.25;10.02;;;1.00;99.90;;;;;;5049051;28;20160;-73
2021/03/19 08:18:18;;;;;;;18.80;10.05;;;1.00;99.90;;;;;;5036827;28;20556;-73
2021/03/19 08:21:06;;;;;;;16.85;10.60;;;1.10;99.90;;;;;;5044806;28;20499;-74
2021/03/19 08:23:51;;;;;;;15.43;8.93;;;1.30;99.90;;;;;;5047048;28;20671;-74
2021/03/19 08:26:29;;;;;;;16.63;9.82;;;1.30;99.90;;;;;;5040889;28;20560;-73
2021/03/19 08:28:57;;;;;;;17.58;9.90;;;1.50;99.90;;;;;;5046949;28;20085;-73
2021/03/19 08:31:34;;;;;;;21.13;11.30;;;1.50;99.90;;;;;;5049881;28;20081;-73
2021/03/19 08:34:23;;;;;;;22.08;11.88;;;1.50;99.90;;;;;;5039501;28;20108;-75
2021/03/19 08:36:53;;;;;;;21.48;11.07;;;1.40;99.90;;;;;;5047415;28;20089;-73
2021/03/19 08:39:35;;;;;;;20.70;12.10;;;1.30;99.90;;;;;;5041563;28;20078;-75
2021/03/19 08:42:17;;;;;;;19.77;11.52;;;1.30;99.90;;;;;;5042245;28;20085;-73
2021/03/19 08:44:43;;;;;;;23.45;12.13;;;1.50;99.90;;;;;;5042147;28;20207;-73
2021/03/19 08:47:18;;;;;;;24.17;12.30;;;1.60;99.90;;;;;;5041625;28;20092;-74
2021/03/19 08:49:46;;;;;;;24.35;14.48;;;1.60;99.90;;;;;;5041954;28;20119;-73
2021/03/19 08:52:36;;;;;;;24.85;13.80;;;1.60;99.90;;;;;;5039865;28;20097;-73
2021/03/19 08:55:15;;;;;;;20.70;13.25;;;1.50;99.90;;;;;;5020729;28;20088;-73
2021/03/19 08:57:44;;;;;;;23.20;12.32;;;1.60;99.90;;;;;;5044335;28;20076;-73
2021/03/19 09:00:14;;;;;;;22.67;12.82;;;1.70;99.90;;;;;;5052061;28;20077;-73
2021/03/19 09:02:44;;;;;;;18.90;11.25;;;1.70;99.90;;;;;;5034994;28;20081;-73
2021/03/19 09:05:18;;;;;;;21.98;12.82;;;1.70;99.90;;;;;;5042918;28;20116;-74
2021/03/19 09:08:11;;;;;;;23.80;13.50;;;1.50;99.90;;;;;;5043019;28;20446;-73
2021/03/19 09:10:36;;;;;;;23.75;13.25;;;1.50;99.90;;;;;;5036339;28;20086;-73
2021/03/19 09:13:08;;;;;;;19.73;12.13;;;1.40;99.90;;;;;;5045455;28;20523;-73
2021/03/19 09:15:36;;;;;;;22.05;12.98;;;1.10;99.90;;;;;;5035309;28;20072;-75
2021/03/19 09:18:12;;;;;;;23.02;14.05;;;1.20;99.90;;;;;;5036229;28;20074;-73
2021/03/19 09:20:38;;;;;;;20.08;12.32;;;1.30;99.90;;;;;;5053711;28;20113;-74
2021/03/19 09:23:10;;;;;;;23.13;13.60;;;1.30;99.90;;;;;;5044626;28;20128;-72
2021/03/19 09:25:54;;;;;;;23.83;13.68;;;1.20;99.90;;;;;;5035602;28;20163;-74
2021/03/19 09:28:25;;;;;;;23.40;14.53;;;1.10;99.90;;;;;;5043040;28;20100;-75
2021/03/19 09:31:02;;;;;;;24.80;13.77;;;1.10;99.90;;;;;;5038983;28;20100;-73
2021/03/19 09:33:43;;;;;;;22.50;12.90;;;1.20;99.90;;;;;;5039928;28;20085;-74
2021/03/19 09:36:46;;;;;;;22.02;13.77;;;1.30;99.90;;;;;;5039840;28;20078;-74
2021/03/19 09:39:49;;;;;;;27.55;15.70;;;1.50;99.90;;;;;;5035349;28;20138;-74
2021/03/19 09:42:18;;;;;;;23.88;14.48;;;1.60;99.90;;;;;;5052233;28;20069;-74
2021/03/19 09:44:48;;;;;;;24.30;13.15;;;1.70;99.90;;;;;;5045548;28;20658;-73
2021/03/19 09:47:16;;;;;;;23.20;13.88;;;1.60;99.90;;;;;;5038944;28;20069;-74
2021/03/19 09:49:42;;;;;;;20.27;12.57;;;1.70;99.90;;;;;;5045904;28;20082;-75
2021/03/19 09:52:17;;;;;;;20.10;11.93;;;1.60;99.90;;;;;;5042951;28;20082;-74
2021/03/19 09:54:43;;;;;;;24.17;13.60;;;1.40;99.90;;;;;;5053863;28;20092;-73
2021/03/19 09:57:25;;;;;;;21.30;13.65;;;1.40;99.90;;;;;;5053696;28;20086;-76
2021/03/19 10:00:11;;;;;;;20.90;13.18;;;1.50;99.90;;;;;;5044979;28;20168;-74
2021/03/19 10:02:39;;;;;;;20.23;12.65;;;1.70;99.90;;;;;;5046591;28;20078;-74
2021/03/19 10:05:21;;;;;;;17.60;12.13;;;1.60;99.90;;;;;;5032339;28;20442;-74
2021/03/19 10:08:09;;;;;;;18.20;12.02;;;1.60;99.90;;;;;;5060606;28;20080;-74
2021/03/19 10:10:39;;;;;;;16.77;10.43;;;1.70;99.90;;;;;;5047926;28;20096;-73
2021/03/19 10:13:07;;;;;;;20.58;12.73;;;1.70;99.90;;;;;;5049687;28;20535;-73
2021/03/19 10:15:34;;;;;;;18.15;11.68;;;1.80;99.90;;;;;;5041571;28;20069;-72
2021/03/19 10:18:03;;;;;;;20.85;12.90;;;1.90;99.90;;;;;;5036609;28;20559;-72
2021/03/19 10:20:34;;;;;;;15.57;11.07;;;1.90;99.90;;;;;;5045135;28;20136;-74
2021/03/19 10:23:10;;;;;;;18.77;11.93;;;2.00;99.90;;;;;;5042084;28;20466;-73
2021/03/19 10:25:41;;;;;;;16.83;11.02;;;2.10;99.90;;;;;;5045976;28;20433;-73
2021/03/19 10:28:17;;;;;;;17.83;10.98;;;2.10;99.90;;;;;;5035984;28;20439;-75
2021/03/19 10:30:52;;;;;;;18.60;10.77;;;2.20;99.90;;;;;;5039199;28;20069;-72
2021/03/19 10:33:26;;;;;;;12.68;8.80;;;2.30;99.90;;;;;;5036627;28;20092;-73
2021/03/19 10:35:51;;;;;;;15.50;8.82;;;2.20;99.90;;;;;;5052896;28;20110;-73
2021/03/19 10:38:48;;;;;;;18.88;10.05;;;2.10;99.90;;;;;;5039609;28;20101;-73
2021/03/19 10:41:36;;;;;;;22.52;13.02;;;2.20;99.90;;;;;;5041144;28;20108;-73
2021/03/19 10:44:14;;;;;;;21.70;11.65;;;2.20;99.90;;;;;;5046879;28;20093;-74
2021/03/19 10:46:48;;;;;;;18.13;11.00;;;2.20;99.90;;;;;;5036540;28;20551;-72
2021/03/19 10:49:19;;;;;;;22.42;12.10;;;2.40;99.90;;;;;;5037717;28;20076;-72
2021/03/19 10:51:49;;;;;;;17.58;10.77;;;2.40;99.90;;;;;;5037016;28;20074;-72
2021/03/19 10:54:14;;;;;;;14.70;9.93;;;2.40;99.90;;;;;;5041172;28;20461;-72
2021/03/19 10:56:55;;;;;;;18.58;13.05;;;2.50;99.90;;;;;;5043583;28;20092;-72
2021/03/19 10:59:33;;;;;;;19.33;13.27;;;2.50;99.90;;;;;;5039308;28;20077;-72
2021/03/19 11:02:20;;;;;;;24.48;14.15;;;2.50;99.90;;;;;;5055095;28;20453;-73
2021/03/19 11:05:07;;;;;;;22.25;14.15;;;2.20;99.90;;;;;;5036869;28;20561;-72
2021/03/19 11:07:39;;;;;;;25.50;14.35;;;2.00;99.90;;;;;;5035936;28;20074;-74
2021/03/19 11:10:07;;;;;;;21.38;13.27;;;1.80;99.90;;;;;;5040721;28;20082;-72
2021/03/19 11:12:47;;;;;;;23.38;13.38;;;1.70;99.90;;;;;;5040780;28;20078;-72
2021/03/19 11:15:24;;;;;;;21.73;14.10;;;1.70;99.90;;;;;;5038919;28;20073;-71
2021/03/19 11:18:23;;;;;;;19.17;12.40;;;1.50;99.90;;;;;;5053689;28;20090;-72
2021/03/19 11:20:53;;;;;;;22.00;14.80;;;1.70;99.90;;;;;;5043523;28;20139;-72
2021/03/19 11:23:35;;;;;;;20.92;13.32;;;1.70;99.90;;;;;;5043815;28;20519;-73
2021/03/19 11:26:15;;;;;;;19.95;11.80;;;1.60;99.90;;;;;;5046931;28;20069;-72
2021/03/19 11:28:43;;;;;;;16.92;10.00;;;1.50;99.90;;;;;;5046799;28;20077;-73
2021/03/19 11:31:27;;;;;;;18.27;11.82;;;1.50;99.90;;;;;;5053814;28;20074;-72
2021/03/19 11:34:17;;;;;;;20.17;12.93;;;1.50;99.90;;;;;;5043131;28;20561;-72
2021/03/19 11:37:00;;;;;;;21.83;14.15;;;1.60;99.90;;;;;;5033009;28;20096;-72
2021/03/19 11:39:39;;;;;;;19.13;13.38;;;1.50;99.90;;;;;;5035578;28;20092;-73
2021/03/19 11:42:09;;;;;;;19.40;13.30;;;1.70;99.90;;;;;;5042694;28;20204;-73
2021/03/19 11:44:35;;;;;;;20.05;11.85;;;1.90;99.90;;;;;;5042305;28;20517;-75
2021/03/19 11:47:31;;;;;;;19.15;11.95;;;2.00;99.90;;;;;;5041377;28;20078;-72
2021/03/19 11:50:21;;;;;;;18.38;12.07;;;2.10;99.90;;;;;;5043609;28;20106;-73
2021/03/19 11:52:49;;;;;;;20.55;13.25;;;2.30;99.90;;;;;;5045276;28;20444;-74
2021/03/19 11:55:22;;;;;;;20.05;13.13;;;2.50;99.90;;;;;;5043388;28;20082;-73
2021/03/19 11:57:49;;;;;;;21.88;13.30;;;2.50;99.90;;;;;;5041566;28;20553;-72
2021/03/19 12:00:19;;;;;;;19.00;12.05;;;2.40;99.90;;;;;;5039597;28;20425;-74
2021/03/19 12:02:45;;;;;;;18.55;11.80;;;2.40;99.90;;;;;;5043670;28;20073;-74
2021/03/19 12:05:12;;;;;;;17.75;11.30;;;2.50;99.90;;;;;;5056307;28;20520;-73
2021/03/19 12:07:38;;;;;;;11.85;8.32;;;2.50;99.90;;;;;;5038392;28;20077;-73
2021/03/19 12:10:07;;;;;;;10.65;7.95;;;2.50;99.90;;;;;;5036777;28;20453;-71
2021/03/19 12:12:33;;;;;;;12.73;8.63;;;2.60;99.90;;;;;;5056940;28;20120;-74
2021/03/19 12:14:59;;;;;;;10.65;7.47;;;3.00;99.90;;;;;;5039631;28;20155;-76
2021/03/19 12:17:25;;;;;;;11.05;7.15;;;3.30;99.90;;;;;;5054571;28;20085;-73
2021/03/19 12:19:52;;;;;;;9.57;6.50;;;3.30;99.90;;;;;;5056288;28;20085;-75
2021/03/19 12:22:18;;;;;;;10.85;6.88;;;3.40;99.90;;;;;;5031195;28;20073;-75
2021/03/19 12:24:44;;;;;;;11.00;8.15;;;3.40;99.90;;;;;;5041646;28;20097;-76
2021/03/19 12:27:12;;;;;;;11.43;7.18;;;3.50;99.90;;;;;;5044670;28;20080;-76
2021/03/19 12:29:38;;;;;;;9.05;6.93;;;3.50;99.90;;;;;;5045344;28;20081;-74
2021/03/19 12:32:04;;;;;;;9.55;6.18;;;3.40;99.90;;;;;;5047257;28;20070;-75
2021/03/19 12:34:29;;;;;;;8.48;6.03;;;3.40;99.90;;;;;;5044650;28;20177;-74
2021/03/19 12:36:55;;;;;;;9.10;6.85;;;3.40;99.90;;;;;;5049087;28;20207;-74
2021/03/19 12:39:21;;;;;;;7.57;6.25;;;3.70;99.90;;;;;;5047197;28;20148;-74
2021/03/19 12:41:48;;;;;;;11.38;6.97;;;3.80;99.90;;;;;;5071301;28;20081;-74
2021/03/19 12:44:14;;;;;;;9.55;7.28;;;3.80;99.90;;;;;;5053896;28;20102;-73
2021/03/19 12:46:40;;;;;;;10.75;7.15;;;3.80;99.90;;;;;;5054333;28;20078;-74
2021/03/19 12:49:06;;;;;;;10.45;6.63;;;4.00;99.90;;;;;;5046167;28;20172;-75
2021/03/19 12:51:33;;;;;;;8.57;6.00;;;4.20;99.90;;;;;;5045485;28;20065;-76
2021/03/19 12:53:58;;;;;;;9.80;7.05;;;4.10;99.90;;;;;;5033824;28;20191;-75
2021/03/19 12:56:24;;;;;;;12.60;7.32;;;4.10;99.90;;;;;;5045326;28;20113;-73
2021/03/19 12:58:50;;;;;;;10.43;6.70;;;4.00;99.90;;;;;;5052266;28;20565;-73
2021/03/19 13:01:19;;;;;;;15.30;7.75;;;4.00;99.90;;;;;;5044802;28;20081;-74
2021/03/19 13:03:46;;;;;;;10.60;7.50;;;3.90;99.90;;;;;;5042245;28;20089;-73
2021/03/19 13:06:12;;;;;;;14.05;9.13;;;3.90;99.90;;;;;;5044820;28;20555;-74
2021/03/19 13:08:38;;;;;;;12.32;8.82;;;3.90;99.90;;;;;;5045269;28;20081;-73
2021/03/19 13:11:04;;;;;;;10.38;7.38;;;3.90;99.90;;;;;;5044040;28;20101;-72
2021/03/19 13:13:30;;;;;;;13.45;8.60;;;3.90;99.90;;;;;;5045484;28;20554;-73
2021/03/19 13:15:56;;;;;;;11.13;8.20;;;3.90;99.90;;;;;;5033106;28;20688;-74
2021/03/19 13:18:22;;;;;;;11.57;7.43;;;3.90;99.90;;;;;;5037572;28;20088;-74